createdAt,value
2022-10-10T00:00:52.665Z,76.73
2022-10-10T00:03:21.247Z,76.59
2022-10-10T00:05:49.275Z,76.55
2022-10-10T00:08:17.261Z,76.60
2022-10-10T00:10:46.598Z,76.56
2022-10-10T00:13:14.638Z,76.13
2022-10-10T00:15:46.774Z,77.55
2022-10-10T00:18:16.742Z,76.88
2022-10-10T00:20:44.695Z,77.05
2022-10-10T00:23:12.714Z,76.98
2022-10-10T00:25:40.708Z,77.40
2022-10-10T00:28:10.178Z,77.79
2022-10-10T00:30:38.201Z,77.72
2022-10-10T00:33:06.499Z,77.86
2022-10-10T00:35:34.585Z,77.66
2022-10-10T00:38:02.689Z,77.25
2022-10-10T00:40:30.853Z,77.39
2022-10-10T00:42:59.376Z,76.85
2022-10-10T00:45:37.708Z,77.87
2022-10-10T00:48:07.463Z,77.63
2022-10-10T00:50:38.333Z,77.80
2022-10-10T00:53:07.154Z,77.43
2022-10-10T00:55:35.962Z,77.85
2022-10-10T00:58:04.682Z,76.84
2022-10-10T01:00:34.202Z,77.52
2022-10-10T01:03:02.228Z,78.41
2022-10-10T01:05:30.674Z,78.46
2022-10-10T01:07:58.818Z,77.42
2022-10-10T01:10:27.087Z,78.87
2022-10-10T01:13:03.946Z,78.78
2022-10-10T01:15:43.294Z,78.57
2022-10-10T01:18:16.694Z,78.93
2022-10-10T01:20:57.461Z,79.79
2022-10-10T01:24:10.568Z,79.35
2022-10-10T01:27:14.567Z,79.92
2022-10-10T01:29:47.040Z,80.51
2022-10-10T01:32:17.966Z,79.85
2022-10-10T01:34:54.039Z,79.67
2022-10-10T01:37:23.774Z,79.83
2022-10-10T01:39:57.879Z,79.59
2022-10-10T01:42:31.061Z,79.21
2022-10-10T01:45:00.365Z,80.01
2022-10-10T01:47:28.372Z,80.02
2022-10-10T01:50:00.590Z,79.62
2022-10-10T01:52:37.236Z,80.01
2022-10-10T01:55:16.772Z,79.96
2022-10-10T01:57:53.978Z,79.92
2022-10-10T02:00:23.355Z,79.61
2022-10-10T02:02:55.785Z,79.24
2022-10-10T02:05:27.113Z,79.54
2022-10-10T02:07:58.477Z,79.55
2022-10-10T02:10:30.515Z,79.29
2022-10-10T02:13:00.509Z,79.17
2022-10-10T02:20:12.944Z,79.66
2022-10-10T02:22:42.654Z,80.21
2022-10-10T02:25:10.913Z,79.78
2022-10-10T02:27:41.811Z,80.25
2022-10-10T02:30:11.442Z,79.88
2022-10-10T02:32:42.207Z,79.80
2022-10-10T02:35:14.643Z,79.60
2022-10-10T02:37:43.473Z,79.93
2022-10-10T02:40:14.256Z,80.22
2022-10-10T02:42:42.910Z,79.95
2022-10-10T02:45:11.511Z,80.42
2022-10-10T02:47:39.580Z,79.82
2022-10-10T02:50:08.460Z,80.13
2022-10-10T02:52:37.818Z,80.78
2022-10-10T02:55:06.826Z,80.04
2022-10-10T02:57:34.895Z,79.72
2022-10-10T03:00:03.033Z,79.44
2022-10-10T03:02:31.740Z,80.70
2022-10-10T03:04:59.834Z,81.34
2022-10-10T03:07:27.928Z,81.14
2022-10-10T03:09:57.451Z,81.69
2022-10-10T03:12:25.568Z,81.25
2022-10-10T03:14:53.819Z,82.22
2022-10-10T03:17:21.853Z,81.59
2022-10-10T03:19:49.905Z,82.52
2022-10-10T03:22:17.935Z,81.86
2022-10-10T03:24:45.957Z,82.50
2022-10-10T03:27:15.334Z,82.70
2022-10-10T03:29:43.325Z,82.55
2022-10-10T03:32:11.384Z,82.64
2022-10-10T03:34:39.457Z,83.10
2022-10-10T03:37:07.582Z,82.92
2022-10-10T03:39:35.659Z,82.31
2022-10-10T03:42:03.749Z,82.37
2022-10-10T03:44:33.182Z,83.83
2022-10-10T03:47:01.220Z,83.15
2022-10-10T03:49:29.394Z,84.03
2022-10-10T03:51:58.385Z,83.32
2022-10-10T03:54:26.499Z,83.83
2022-10-10T03:56:54.494Z,83.17
2022-10-10T03:59:22.748Z,83.39
2022-10-10T04:01:52.176Z,82.88
2022-10-10T04:04:20.147Z,82.87
2022-10-10T04:06:48.221Z,83.32
2022-10-10T04:09:16.217Z,83.40
2022-10-10T04:11:45.668Z,83.18
2022-10-10T04:14:13.653Z,84.11
2022-10-10T04:16:41.680Z,84.11
2022-10-10T04:19:11.089Z,84.00
2022-10-10T04:21:39.054Z,84.27
2022-10-10T04:24:07.335Z,83.89
2022-10-10T04:26:35.370Z,84.60
2022-10-10T04:29:03.742Z,84.41
2022-10-10T04:31:31.717Z,84.90
2022-10-10T04:33:59.846Z,84.81
2022-10-10T04:36:29.246Z,84.47
2022-10-10T04:38:57.297Z,84.80
2022-10-10T04:41:25.476Z,85.33
2022-10-10T04:43:53.510Z,85.32
2022-10-10T04:46:21.681Z,85.48
2022-10-10T04:48:49.782Z,85.20
2022-10-10T04:51:18.508Z,85.99
2022-10-10T04:53:50.405Z,86.91
2022-10-10T04:56:18.610Z,86.31
2022-10-10T04:58:46.607Z,86.04
2022-10-10T05:01:14.616Z,86.66
2022-10-10T05:03:42.636Z,85.93
2022-10-10T05:06:10.635Z,85.99
2022-10-10T05:08:38.776Z,86.78
2022-10-10T05:11:08.339Z,86.98
2022-10-10T05:13:36.468Z,86.21
2022-10-10T05:16:04.626Z,87.03
2022-10-10T05:18:32.705Z,87.09
2022-10-10T05:21:03.653Z,87.83
2022-10-10T05:23:32.188Z,87.64
2022-10-10T05:26:00.355Z,87.52
2022-10-10T05:28:29.870Z,87.64
2022-10-10T05:30:58.171Z,87.35
2022-10-10T05:33:26.247Z,87.47
2022-10-10T05:35:54.298Z,88.53
2022-10-10T05:38:22.374Z,88.36
2022-10-10T05:40:50.448Z,87.67
2022-10-10T05:43:18.482Z,89.13
2022-10-10T05:45:47.919Z,88.35
2022-10-10T05:48:15.976Z,88.03
2022-10-10T05:50:47.935Z,88.30
2022-10-10T05:53:16.228Z,88.01
2022-10-10T05:55:44.519Z,89.07
2022-10-10T05:58:14.225Z,88.67
2022-10-10T06:00:42.615Z,89.08
2022-10-10T06:03:14.211Z,88.21
2022-10-10T06:05:42.511Z,88.75
2022-10-10T06:08:12.074Z,88.72
2022-10-10T06:10:41.861Z,88.95
2022-10-10T06:13:10.339Z,88.50
2022-10-10T06:15:38.399Z,88.62
2022-10-10T06:18:07.313Z,88.94
2022-10-10T06:20:37.507Z,89.19
2022-10-10T06:23:06.258Z,88.52
2022-10-10T06:25:40.488Z,88.02
2022-10-10T06:28:09.640Z,89.41
2022-10-10T06:30:41.081Z,88.95
2022-10-10T06:33:09.191Z,88.98
2022-10-10T06:35:42.123Z,89.42
2022-10-10T06:38:10.327Z,88.72
2022-10-10T06:40:38.439Z,89.08
2022-10-10T06:43:10.421Z,88.87
2022-10-10T06:45:39.531Z,88.99
2022-10-10T06:48:08.391Z,89.53
2022-10-10T06:50:36.909Z,89.79
2022-10-10T06:53:06.680Z,89.30
2022-10-10T06:55:34.773Z,89.82
2022-10-10T06:58:02.914Z,89.51
2022-10-10T07:00:31.032Z,89.81
2022-10-10T07:02:59.062Z,90.59
2022-10-10T07:05:27.129Z,91.28
2022-10-10T07:07:55.240Z,92.20
2022-10-10T07:10:24.760Z,91.35
2022-10-10T07:12:53.365Z,92.95
2022-10-10T07:15:21.514Z,92.63
2022-10-10T07:17:54.283Z,92.26
2022-10-10T07:20:22.562Z,92.31
2022-10-10T07:22:51.079Z,92.13
2022-10-10T07:25:19.416Z,92.36
2022-10-10T07:27:49.425Z,92.08
2022-10-10T07:30:17.790Z,91.73
2022-10-10T07:32:45.905Z,91.98
2022-10-10T07:35:14.054Z,91.67
2022-10-10T07:37:42.132Z,92.21
2022-10-10T07:40:11.071Z,92.39
2022-10-10T07:42:39.411Z,91.50
2022-10-10T07:45:12.143Z,91.66
2022-10-10T07:47:40.267Z,91.79
2022-10-10T07:50:09.508Z,91.25
2022-10-10T07:52:37.544Z,91.75
2022-10-10T07:55:06.300Z,91.27
2022-10-10T07:57:35.131Z,91.18
2022-10-10T08:00:03.896Z,90.74
2022-10-10T08:02:41.092Z,90.48
2022-10-10T08:05:09.855Z,90.28
2022-10-10T08:07:37.914Z,90.51
2022-10-10T08:10:08.291Z,90.42
2022-10-10T08:13:01.253Z,90.91
2022-10-10T08:15:33.104Z,90.84
2022-10-10T08:18:03.543Z,90.43
2022-10-10T08:20:31.659Z,90.33
2022-10-10T08:22:59.709Z,90.35
2022-10-10T08:25:27.793Z,90.28
2022-10-10T08:27:55.872Z,89.96
2022-10-10T08:30:24.003Z,90.19
2022-10-10T08:32:52.606Z,89.65
2022-10-10T08:35:22.342Z,89.67
2022-10-10T08:37:50.684Z,89.38
2022-10-10T08:40:21.296Z,89.50
2022-10-10T08:42:53.151Z,89.39
2022-10-10T08:45:23.779Z,88.95
2022-10-10T08:47:55.555Z,89.10
2022-10-10T08:50:27.020Z,88.91
2022-10-10T08:52:57.935Z,88.79
2022-10-10T08:55:33.189Z,88.40
2022-10-10T08:58:05.058Z,88.36
2022-10-10T09:00:38.008Z,88.25
2022-10-10T09:03:16.496Z,87.49
2022-10-10T09:05:52.767Z,87.80
2022-10-10T09:08:35.677Z,87.55
2022-10-10T09:11:07.377Z,87.67
2022-10-10T09:13:37.934Z,87.55
2022-10-10T09:16:09.625Z,87.48
2022-10-10T09:18:45.341Z,87.30
2022-10-10T09:21:17.302Z,87.01
2022-10-10T09:23:48.529Z,86.92
2022-10-10T09:26:18.704Z,85.94
2022-10-10T09:28:51.911Z,85.62
2022-10-10T09:31:24.909Z,86.50
2022-10-10T09:33:57.042Z,86.29
2022-10-10T09:36:31.940Z,86.01
2022-10-10T09:39:03.102Z,86.20
2022-10-10T09:41:36.114Z,86.79
2022-10-10T09:44:07.545Z,86.47
2022-10-10T09:46:35.623Z,86.07
2022-10-10T09:49:03.913Z,86.16
2022-10-10T09:51:33.863Z,85.97
2022-10-10T09:54:02.441Z,86.29
2022-10-10T09:56:33.175Z,86.53
2022-10-10T09:59:01.196Z,86.42
2022-10-10T10:01:32.674Z,85.91
2022-10-10T10:04:27.727Z,86.27
2022-10-10T10:07:06.876Z,85.62
2022-10-10T10:09:35.153Z,84.71
2022-10-10T10:12:06.139Z,85.32
2022-10-10T10:14:37.933Z,85.05
2022-10-10T10:17:07.790Z,85.21
2022-10-10T10:19:37.479Z,85.32
2022-10-10T10:22:10.368Z,85.03
2022-10-10T10:24:39.085Z,85.09
2022-10-10T10:27:11.951Z,85.17
2022-10-10T10:29:42.016Z,84.65
2022-10-10T10:32:15.844Z,83.89
2022-10-10T10:35:07.545Z,83.86
2022-10-10T10:37:44.834Z,83.97
2022-10-10T10:40:25.110Z,83.66
2022-10-10T10:43:14.019Z,83.10
2022-10-10T10:45:48.447Z,82.94
2022-10-10T10:48:24.926Z,82.67
2022-10-10T10:50:56.053Z,83.25
2022-10-10T10:53:33.721Z,83.02
2022-10-10T10:56:10.144Z,83.06
2022-10-10T10:59:30.434Z,82.63
2022-10-10T11:01:58.661Z,82.89
2022-10-10T11:05:31.145Z,83.71
2022-10-10T11:08:18.181Z,82.69
2022-10-10T11:10:54.939Z,82.45
2022-10-10T11:13:28.573Z,81.06
2022-10-10T11:16:10.818Z,81.45
2022-10-10T11:18:46.975Z,81.69
2022-10-10T11:21:17.906Z,81.57
2022-10-10T11:23:48.705Z,81.07
2022-10-10T11:26:21.819Z,80.76
2022-10-10T11:28:51.928Z,80.65
2022-10-10T11:31:24.303Z,80.41
2022-10-10T11:33:57.352Z,80.25
2022-10-10T11:36:27.779Z,79.79
2022-10-10T11:38:58.733Z,78.56
2022-10-10T11:41:33.717Z,77.95
2022-10-10T11:44:04.322Z,78.51
2022-10-10T11:46:39.840Z,79.11
2022-10-10T11:49:13.309Z,78.84
2022-10-10T11:51:46.398Z,79.64
2022-10-10T11:54:28.970Z,78.13
2022-10-10T11:57:02.657Z,77.25
2022-10-10T11:59:34.383Z,77.00
2022-10-10T12:02:04.176Z,77.90
2022-10-10T12:04:36.358Z,77.83
2022-10-10T12:07:06.809Z,77.41
2022-10-10T12:09:38.731Z,77.05
2022-10-10T12:12:13.303Z,76.86
2022-10-10T12:14:45.951Z,77.91
2022-10-10T12:20:48.237Z,77.86
2022-10-10T12:23:24.120Z,75.96
2022-10-10T12:25:52.148Z,76.42
2022-10-10T12:28:30.937Z,76.06
2022-10-10T12:31:31.221Z,76.55
2022-10-10T12:34:17.055Z,74.86
2022-10-10T12:37:11.431Z,75.55
2022-10-10T12:39:42.810Z,74.94
2022-10-10T12:42:32.500Z,73.13
2022-10-10T12:45:02.390Z,74.20
2022-10-10T12:48:03.983Z,74.37
2022-10-10T12:50:34.543Z,73.24
2022-10-10T12:53:04.085Z,72.91
2022-10-10T12:55:33.926Z,73.71
2022-10-10T12:58:03.950Z,73.73
2022-10-10T13:00:40.950Z,73.52
2022-10-10T13:03:13.799Z,72.92
2022-10-10T13:05:42.270Z,71.91
2022-10-10T13:08:16.390Z,71.75
2022-10-10T13:10:44.668Z,72.73
2022-10-10T13:13:19.268Z,71.94
2022-10-10T13:15:54.535Z,72.59
2022-10-10T13:18:34.699Z,72.22
2022-10-10T13:21:03.494Z,71.77
2022-10-10T13:23:31.955Z,70.75
2022-10-10T13:26:00.745Z,70.85
2022-10-10T13:28:29.055Z,70.32
2022-10-10T13:30:58.783Z,70.33
2022-10-10T13:33:31.942Z,70.03
2022-10-10T13:36:07.076Z,70.89
2022-10-10T13:38:35.657Z,70.78
2022-10-10T13:41:05.167Z,70.73
2022-10-10T13:43:34.357Z,69.85
2022-10-10T13:46:05.110Z,70.31
2022-10-10T13:48:40.528Z,70.19
2022-10-10T13:51:11.070Z,70.53
2022-10-10T13:53:53.492Z,70.78
2022-10-10T13:56:25.497Z,70.34
2022-10-10T13:58:55.354Z,70.74
2022-10-10T14:01:30.767Z,69.88
2022-10-10T14:04:02.969Z,70.03
2022-10-10T14:06:31.259Z,70.27
2022-10-10T14:09:08.490Z,69.22
2022-10-10T14:11:36.851Z,69.14
2022-10-10T14:14:09.584Z,69.56
2022-10-10T14:16:39.006Z,69.96
2022-10-10T14:19:17.265Z,70.23
2022-10-10T14:21:45.418Z,70.56
2022-10-10T14:24:14.765Z,69.92
2022-10-10T14:26:44.194Z,70.57
2022-10-10T14:29:13.109Z,70.88
2022-10-10T14:31:42.669Z,70.53
2022-10-10T14:34:11.507Z,70.67
2022-10-10T14:36:40.307Z,70.74
2022-10-10T14:39:08.367Z,70.85
2022-10-10T14:41:36.430Z,70.68
2022-10-10T14:44:04.416Z,70.69
2022-10-10T14:46:32.580Z,70.49
2022-10-10T14:49:01.960Z,71.09
2022-10-10T14:51:33.768Z,70.41
2022-10-10T14:54:11.018Z,70.55
2022-10-10T14:57:08.488Z,70.89
2022-10-10T14:59:49.308Z,70.75
2022-10-10T15:02:21.511Z,70.96
2022-10-10T15:04:51.211Z,71.31
2022-10-10T15:07:19.587Z,71.17
2022-10-10T15:12:38.997Z,71.25
2022-10-10T15:15:08.640Z,71.56
2022-10-10T15:17:36.696Z,72.07
2022-10-10T15:20:08.638Z,72.56
2022-10-10T15:22:37.275Z,72.81
2022-10-10T15:25:06.168Z,72.93
2022-10-10T15:27:34.302Z,72.93
2022-10-10T15:30:02.297Z,73.09
2022-10-10T15:32:30.366Z,73.03
2022-10-10T15:34:58.581Z,73.63
2022-10-10T15:37:28.559Z,74.09
2022-10-10T15:39:56.600Z,74.55
2022-10-10T15:42:24.634Z,74.45
2022-10-10T15:45:31.270Z,74.43
2022-10-10T15:48:06.230Z,74.39
2022-10-10T15:50:39.208Z,74.34
2022-10-10T15:53:30.891Z,74.36
2022-10-10T15:55:59.324Z,74.32
2022-10-10T15:58:27.436Z,74.23
2022-10-10T16:00:55.475Z,74.39
2022-10-10T16:03:23.627Z,74.68
2022-10-10T16:05:51.697Z,74.83
2022-10-10T16:08:19.896Z,74.94
2022-10-10T16:10:49.328Z,74.89
2022-10-10T16:13:17.363Z,74.87
2022-10-10T16:15:45.461Z,74.98
2022-10-10T16:18:13.623Z,74.97
2022-10-10T16:20:41.660Z,74.91
2022-10-10T16:23:09.665Z,74.66
2022-10-10T16:25:37.771Z,75.22
2022-10-10T16:28:07.441Z,75.48
2022-10-10T16:30:36.243Z,75.74
2022-10-10T16:33:09.325Z,75.66
2022-10-10T16:35:40.251Z,75.42
2022-10-10T16:38:08.338Z,75.84
2022-10-10T16:40:36.823Z,76.08
2022-10-10T16:43:05.165Z,76.52
2022-10-10T16:45:34.666Z,76.95
2022-10-10T16:48:02.659Z,77.11
2022-10-10T16:50:30.810Z,77.27
2022-10-10T16:52:59.716Z,77.34
2022-10-10T16:55:27.784Z,77.19
2022-10-10T16:57:58.765Z,77.16
2022-10-10T17:00:26.891Z,77.45
2022-10-10T17:02:56.290Z,77.41
2022-10-10T17:05:24.430Z,77.73
2022-10-10T17:07:52.495Z,78.42
2022-10-10T17:10:20.615Z,78.37
2022-10-10T17:12:48.728Z,78.66
2022-10-10T17:15:16.834Z,78.61
2022-10-10T17:17:45.008Z,78.99
2022-10-10T17:20:14.349Z,79.61
2022-10-10T17:22:49.738Z,79.38
2022-10-10T17:25:18.043Z,79.25
2022-10-10T17:27:46.341Z,79.54
2022-10-10T17:30:15.118Z,79.47
2022-10-10T17:32:43.941Z,79.52
2022-10-10T17:35:12.455Z,79.79
2022-10-10T17:37:41.921Z,79.85
2022-10-10T17:40:10.787Z,79.82
2022-10-10T17:42:38.888Z,80.10
2022-10-10T17:45:08.135Z,80.40
2022-10-10T17:47:36.466Z,80.49
2022-10-10T17:50:04.658Z,80.54
2022-10-10T17:52:33.402Z,80.59
2022-10-10T17:55:03.085Z,80.75
2022-10-10T17:57:31.414Z,80.93
2022-10-10T17:59:59.485Z,80.91
2022-10-10T18:02:27.572Z,81.02
2022-10-10T18:04:55.769Z,81.83
2022-10-10T18:07:23.857Z,81.40
2022-10-10T18:09:52.729Z,81.71
2022-10-10T18:12:22.442Z,81.95
2022-10-10T18:14:50.522Z,81.92
2022-10-10T18:17:18.632Z,81.93
2022-10-10T18:19:47.451Z,81.94
2022-10-10T18:22:15.913Z,81.86
2022-10-10T18:24:44.045Z,82.24
2022-10-10T18:27:12.223Z,82.11
2022-10-10T18:29:42.440Z,82.15
2022-10-10T18:32:10.425Z,82.39
2022-10-10T18:34:38.568Z,81.82
2022-10-10T18:37:07.186Z,82.07
2022-10-10T18:39:36.006Z,81.86
2022-10-10T18:42:04.296Z,82.00
2022-10-10T18:44:32.377Z,82.06
2022-10-10T18:47:01.788Z,81.58
2022-10-10T18:49:29.858Z,82.05
2022-10-10T18:51:57.955Z,81.95
2022-10-10T18:54:27.327Z,81.60
2022-10-10T18:56:55.330Z,81.36
2022-10-10T18:59:23.696Z,81.44
2022-10-10T19:01:52.606Z,81.64
2022-10-10T19:04:22.532Z,81.73
2022-10-10T19:06:56.226Z,81.20
2022-10-10T19:09:25.569Z,81.11
2022-10-10T19:11:53.623Z,80.56
2022-10-10T19:14:22.067Z,81.05
2022-10-10T19:16:50.097Z,80.75
2022-10-10T19:19:19.828Z,80.59
2022-10-10T19:21:50.137Z,81.20
2022-10-10T19:24:21.543Z,80.83
2022-10-10T19:26:53.192Z,81.14
2022-10-10T19:29:21.668Z,81.22
2022-10-10T19:31:49.791Z,81.04
2022-10-10T19:34:17.847Z,81.51
2022-10-10T19:36:46.020Z,80.91
2022-10-10T19:39:16.436Z,81.30
2022-10-10T19:41:44.500Z,81.19
2022-10-10T19:44:12.544Z,81.08
2022-10-10T19:46:40.672Z,80.94
2022-10-10T19:49:08.735Z,80.46
2022-10-10T19:51:36.772Z,80.85
2022-10-10T19:54:05.015Z,81.10
2022-10-10T19:56:34.384Z,80.73
2022-10-10T19:59:05.487Z,80.29
2022-10-10T20:01:33.815Z,80.48
2022-10-10T20:04:01.850Z,80.82
2022-10-10T20:06:30.128Z,81.27
2022-10-10T20:08:58.284Z,81.23
2022-10-10T20:11:26.801Z,81.49
2022-10-10T20:13:58.373Z,81.37
2022-10-10T20:16:27.555Z,80.94
2022-10-10T20:18:59.371Z,81.17
2022-10-10T20:21:31.588Z,81.72
2022-10-10T20:24:02.122Z,82.00
2022-10-10T20:26:30.629Z,81.84
2022-10-10T20:29:00.603Z,82.12
2022-10-10T20:31:30.350Z,81.90
2022-10-10T20:34:00.689Z,82.55
2022-10-10T20:36:30.150Z,82.17
2022-10-10T20:39:00.576Z,82.21
2022-10-10T20:41:31.136Z,82.40
2022-10-10T20:44:02.031Z,81.73
2022-10-10T20:46:31.045Z,82.49
2022-10-10T20:49:00.751Z,82.56
2022-10-10T20:51:29.309Z,82.22
2022-10-10T20:53:59.639Z,82.76
2022-10-10T20:56:27.952Z,82.69
2022-10-10T20:58:56.329Z,82.96
2022-10-10T21:01:27.723Z,83.47
2022-10-10T21:03:56.118Z,83.10
2022-10-10T21:06:26.686Z,83.07
2022-10-10T21:08:55.490Z,83.11
2022-10-10T21:11:24.352Z,83.14
2022-10-10T21:13:56.323Z,82.86
2022-10-10T21:16:27.522Z,83.08
2022-10-10T21:18:58.348Z,83.15
2022-10-10T21:21:27.499Z,82.95
2022-10-10T21:23:56.678Z,82.88
2022-10-10T21:26:27.056Z,82.87
2022-10-10T21:28:55.880Z,83.24
2022-10-10T21:31:26.439Z,83.02
2022-10-10T21:33:54.787Z,83.39
2022-10-10T21:36:24.237Z,83.23
2022-10-10T21:38:52.466Z,83.82
2022-10-10T21:41:21.762Z,83.42
2022-10-10T21:43:52.208Z,83.53
2022-10-10T21:46:23.367Z,83.71
2022-10-10T21:48:53.354Z,83.92
2022-10-10T21:51:21.859Z,84.05
2022-10-10T21:53:50.029Z,84.30
2022-10-10T21:56:18.706Z,84.62
2022-10-10T21:58:46.768Z,84.39
2022-10-10T22:01:16.760Z,84.83
2022-10-10T22:03:46.401Z,84.37
2022-10-10T22:06:17.308Z,84.17
2022-10-10T22:08:46.918Z,83.56
2022-10-10T22:11:16.535Z,83.69
2022-10-10T22:13:44.891Z,83.75
2022-10-10T22:16:13.164Z,83.64
2022-10-10T22:18:41.916Z,83.72
2022-10-10T22:21:11.679Z,83.24
2022-10-10T22:23:41.544Z,83.51
2022-10-10T22:26:10.582Z,83.96
2022-10-10T22:28:39.213Z,83.97
2022-10-10T22:31:08.423Z,84.07
2022-10-10T22:33:36.673Z,83.86
2022-10-10T22:36:06.049Z,84.65
2022-10-10T22:38:34.409Z,84.90
2022-10-10T22:41:03.792Z,84.80
2022-10-10T22:43:31.832Z,84.57
2022-10-10T22:45:59.868Z,84.85
2022-10-10T22:48:28.222Z,85.08
2022-10-10T22:51:00.604Z,85.09
2022-10-10T22:53:29.497Z,85.51
2022-10-10T22:55:57.625Z,85.66
2022-10-10T22:58:27.496Z,85.65
2022-10-10T23:00:55.654Z,85.97
2022-10-10T23:03:23.826Z,86.07
2022-10-10T23:05:51.802Z,86.29
2022-10-10T23:08:19.903Z,86.65
2022-10-10T23:10:48.188Z,87.06
2022-10-10T23:13:16.384Z,87.08
2022-10-10T23:15:45.783Z,87.28
2022-10-10T23:18:13.870Z,87.30
2022-10-10T23:20:41.890Z,87.82
2022-10-10T23:23:09.852Z,87.72
2022-10-10T23:25:41.399Z,87.57
2022-10-10T23:28:09.725Z,87.27
2022-10-10T23:30:39.303Z,86.92
2022-10-10T23:33:08.972Z,87.00
2022-10-10T23:35:37.562Z,86.94
2022-10-10T23:38:05.849Z,86.89
2022-10-10T23:40:34.250Z,86.66
2022-10-10T23:43:02.590Z,86.51
2022-10-10T23:45:31.361Z,86.60
2022-10-10T23:47:59.394Z,86.58
2022-10-10T23:50:28.760Z,86.72
2022-10-10T23:52:56.778Z,86.86
2022-10-10T23:55:24.921Z,86.61
2022-10-10T23:57:53.032Z,86.63
